Time;durP1;ratioP1;P1;durP2;ratioP2;P2;SDS_P1;SDS_P2;PMS_P1;PMS_P2;Temp;Humidity;BMP_temperature;BMP_pressure;BME280_temperature;BME280_humidity;BME280_pressure;Samples;Min_cycle;Max_cycle;Signal;HPM_P1;HPM_P2
2020/12/08 00:02:06;;;;;;;4.35;3.88;;;10.50;99.90;;;;;;5112191;28;20296;-38
2020/12/08 00:04:37;;;;;;;4.80;3.67;;;10.50;99.90;;;;;;5109187;28;20661;-34
2020/12/08 00:07:08;;;;;;;4.20;3.80;;;10.50;99.90;;;;;;5095129;28;20670;-38
2020/12/08 00:09:40;;;;;;;4.85;3.60;;;10.30;99.90;;;;;;5109364;28;20518;-37
2020/12/08 00:12:10;;;;;;;3.88;3.47;;;10.10;99.90;;;;;;5099382;28;20204;-37
2020/12/08 00:14:40;;;;;;;4.28;3.47;;;10.00;99.90;;;;;;5093998;28;20191;-36
2020/12/08 00:17:12;;;;;;;3.75;3.45;;;9.90;99.90;;;;;;5095894;28;20188;-37
2020/12/08 00:19:42;;;;;;;3.25;2.95;;;9.90;99.90;;;;;;5102901;28;20548;-34
2020/12/08 00:22:12;;;;;;;3.45;3.25;;;9.80;99.90;;;;;;5099512;28;20660;-35
2020/12/08 00:24:43;;;;;;;3.15;2.90;;;9.60;99.90;;;;;;5098488;28;20235;-35
2020/12/08 00:27:13;;;;;;;3.95;3.65;;;9.60;99.90;;;;;;5100891;28;20192;-32
2020/12/08 00:29:43;;;;;;;3.90;3.60;;;9.70;99.90;;;;;;5098263;28;20200;-38
2020/12/08 00:32:16;;;;;;;4.22;3.83;;;9.60;99.90;;;;;;5103950;28;20207;-35
2020/12/08 00:34:46;;;;;;;4.43;4.03;;;9.40;99.90;;;;;;5100544;28;20643;-36
2020/12/08 00:37:16;;;;;;;3.85;3.42;;;9.30;99.90;;;;;;5105007;28;20252;-35
2020/12/08 00:39:47;;;;;;;3.78;3.47;;;9.30;99.90;;;;;;5101514;28;20197;-34
2020/12/08 00:42:17;;;;;;;5.18;4.28;;;9.30;99.90;;;;;;5103910;28;20240;-34
2020/12/08 00:44:47;;;;;;;4.70;3.75;;;9.30;99.90;;;;;;5101915;28;20573;-36
2020/12/08 00:47:18;;;;;;;4.57;3.33;;;9.40;99.90;;;;;;5104102;28;20196;-38
2020/12/08 00:49:49;;;;;;;3.70;3.38;;;9.40;99.90;;;;;;5098099;28;20196;-37
2020/12/08 00:52:20;;;;;;;3.97;3.58;;;9.40;99.90;;;;;;5095089;28;20201;-36
2020/12/08 00:55:01;;;;;;;3.80;3.50;;;9.30;99.90;;;;;;5094669;28;20195;-33
2020/12/08 00:57:32;;;;;;;3.70;3.22;;;9.40;99.90;;;;;;5102965;28;20192;-37
2020/12/08 01:00:02;;;;;;;4.00;3.70;;;9.30;99.90;;;;;;5099538;28;20185;-36
2020/12/08 01:02:34;;;;;;;3.97;3.67;;;9.30;99.90;;;;;;5097162;28;20216;-34
2020/12/08 01:05:10;;;;;;;3.53;3.22;;;9.20;99.90;;;;;;5099707;28;20631;-32
2020/12/08 01:07:41;;;;;;;3.83;3.50;;;9.20;99.90;;;;;;5099575;28;20180;-35
2020/12/08 01:10:12;;;;;;;3.95;3.63;;;9.10;99.90;;;;;;5100456;28;20184;-35
2020/12/08 01:12:42;;;;;;;5.60;4.18;;;9.10;99.90;;;;;;5096711;28;20648;-34
2020/12/08 01:15:13;;;;;;;4.85;3.70;;;9.00;99.90;;;;;;5103472;28;20201;-37
2020/12/08 01:17:44;;;;;;;3.42;3.03;;;9.10;99.90;;;;;;5099131;28;20317;-34
2020/12/08 01:20:15;;;;;;;3.13;2.83;;;9.10;99.90;;;;;;5108746;28;20275;-33
2020/12/08 01:22:45;;;;;;;3.25;2.97;;;9.10;99.90;;;;;;5110377;28;20452;-34
2020/12/08 01:25:15;;;;;;;3.35;3.08;;;9.10;99.90;;;;;;5109231;28;20211;-34
2020/12/08 01:27:46;;;;;;;3.97;3.58;;;9.10;99.90;;;;;;5110032;28;20195;-36
2020/12/08 01:30:16;;;;;;;4.05;3.53;;;9.10;99.90;;;;;;5103852;28;20189;-36
2020/12/08 01:32:48;;;;;;;4.65;3.67;;;9.10;99.90;;;;;;5099981;28;20283;-37
2020/12/08 01:35:18;;;;;;;4.15;3.85;;;9.10;99.90;;;;;;5096235;28;20192;-35
2020/12/08 01:37:49;;;;;;;4.38;3.97;;;9.10;99.90;;;;;;5102378;28;20208;-36
2020/12/08 01:40:19;;;;;;;3.60;3.30;;;9.10;99.90;;;;;;5097880;28;20223;-35
2020/12/08 01:42:49;;;;;;;5.40;3.35;;;9.00;99.90;;;;;;5098134;28;20235;-34
2020/12/08 01:45:19;;;;;;;3.83;3.53;;;8.90;99.90;;;;;;5102891;28;20201;-37
2020/12/08 01:47:51;;;;;;;3.60;3.30;;;8.90;99.90;;;;;;5102313;28;20204;-37
2020/12/08 01:50:21;;;;;;;3.97;3.40;;;9.00;99.90;;;;;;5094520;28;20201;-38
2020/12/08 01:52:52;;;;;;;4.10;3.80;;;8.90;99.90;;;;;;5104505;28;20565;-37
2020/12/08 01:55:23;;;;;;;4.35;3.72;;;8.70;99.90;;;;;;5108606;28;20536;-37
2020/12/08 01:57:53;;;;;;;5.80;4.55;;;8.70;99.90;;;;;;5101169;28;20196;-39
2020/12/08 02:00:23;;;;;;;7.32;4.20;;;8.70;99.90;;;;;;5097236;28;20419;-35
2020/12/08 02:02:55;;;;;;;4.43;4.03;;;8.70;99.90;;;;;;5109777;28;20636;-31
2020/12/08 02:05:25;;;;;;;4.45;4.05;;;8.70;99.90;;;;;;5103214;28;20197;-36
2020/12/08 02:07:55;;;;;;;4.93;4.43;;;8.70;99.90;;;;;;5095051;28;20200;-38
2020/12/08 02:10:25;;;;;;;5.80;5.25;;;8.60;99.90;;;;;;5098936;28;20200;-36
2020/12/08 02:12:55;;;;;;;5.55;5.15;;;8.60;99.90;;;;;;5106213;28;20184;-38
2020/12/08 02:15:29;;;;;;;5.85;5.35;;;8.60;99.90;;;;;;5100623;28;20255;-37
2020/12/08 02:18:02;;;;;;;5.45;4.95;;;8.60;99.90;;;;;;5097924;28;20279;-36
2020/12/08 02:20:33;;;;;;;5.00;4.50;;;8.60;99.90;;;;;;5098631;28;20189;-31
2020/12/08 02:23:03;;;;;;;6.07;5.30;;;8.70;99.90;;;;;;5097718;28;20714;-34
2020/12/08 02:25:33;;;;;;;7.55;5.15;;;8.70;99.90;;;;;;5101966;28;20188;-37
2020/12/08 02:28:04;;;;;;;5.20;4.70;;;8.70;99.90;;;;;;5098763;28;20287;-36
2020/12/08 02:30:34;;;;;;;6.18;5.57;;;8.60;99.90;;;;;;5093506;28;20207;-37
2020/12/08 02:33:05;;;;;;;5.47;4.97;;;8.60;99.90;;;;;;5095445;28;20207;-36
2020/12/08 02:35:37;;;;;;;5.68;5.07;;;8.70;99.90;;;;;;5101617;28;20193;-36
2020/12/08 02:38:08;;;;;;;5.15;4.75;;;8.70;99.90;;;;;;5095907;28;20188;-36
2020/12/08 02:40:38;;;;;;;5.85;5.30;;;8.60;99.90;;;;;;5106069;28;20623;-37
2020/12/08 02:43:08;;;;;;;6.82;6.00;;;8.50;99.90;;;;;;5102095;28;20213;-37
2020/12/08 02:45:39;;;;;;;5.63;5.13;;;8.60;99.90;;;;;;5100247;28;20200;-39
2020/12/08 02:48:09;;;;;;;7.60;5.93;;;8.70;99.90;;;;;;5091162;28;20507;-38
2020/12/08 02:50:40;;;;;;;6.70;5.72;;;8.60;99.90;;;;;;5099521;28;20188;-37
2020/12/08 02:53:11;;;;;;;6.20;5.60;;;8.50;99.90;;;;;;5100653;28;20193;-38
2020/12/08 02:55:41;;;;;;;5.50;5.00;;;8.60;99.90;;;;;;5099901;28;20271;-38
2020/12/08 02:58:11;;;;;;;6.20;5.57;;;8.50;99.90;;;;;;5102137;28;20199;-36
2020/12/08 03:00:41;;;;;;;5.82;5.30;;;8.40;99.90;;;;;;5103224;28;20188;-37
2020/12/08 03:03:12;;;;;;;5.75;5.25;;;8.40;99.90;;;;;;5107537;28;20272;-37
2020/12/08 03:05:43;;;;;;;6.20;5.63;;;8.30;99.90;;;;;;5097393;28;20212;-37
2020/12/08 03:08:15;;;;;;;6.57;5.97;;;8.30;99.90;;;;;;5089583;28;20204;-39
2020/12/08 03:10:47;;;;;;;7.13;6.43;;;8.20;99.90;;;;;;5099445;28;20189;-38
2020/12/08 03:13:17;;;;;;;7.00;6.32;;;8.30;99.90;;;;;;5095911;28;20193;-36
2020/12/08 03:15:48;;;;;;;8.13;7.28;;;8.30;99.90;;;;;;5096309;28;20724;-35
2020/12/08 03:18:18;;;;;;;8.93;7.20;;;8.20;99.90;;;;;;5101074;28;20218;-37
2020/12/08 03:20:49;;;;;;;6.90;6.28;;;8.20;99.90;;;;;;5096764;28;20201;-35
2020/12/08 03:23:19;;;;;;;8.73;7.88;;;8.20;99.90;;;;;;5103905;28;20270;-34
2020/12/08 03:25:49;;;;;;;8.13;7.32;;;8.10;99.90;;;;;;5100969;28;20569;-37
2020/12/08 03:28:20;;;;;;;9.15;8.20;;;8.00;99.90;;;;;;5097219;28;20231;-35
2020/12/08 03:30:50;;;;;;;10.90;9.65;;;8.00;99.90;;;;;;5094956;28;20200;-36
2020/12/08 03:33:20;;;;;;;9.60;8.70;;;8.00;99.90;;;;;;5100150;28;20227;-37
2020/12/08 03:35:53;;;;;;;9.95;8.95;;;8.10;99.90;;;;;;5101610;28;20296;-36
2020/12/08 03:38:23;;;;;;;9.57;8.68;;;8.00;99.90;;;;;;5096429;28;20262;-37
2020/12/08 03:40:53;;;;;;;10.10;8.93;;;8.00;99.90;;;;;;5097139;28;20236;-35
2020/12/08 03:43:23;;;;;;;10.07;8.70;;;8.00;99.90;;;;;;5100926;28;20702;-33
2020/12/08 03:45:54;;;;;;;10.38;8.98;;;8.00;99.90;;;;;;5103561;28;20200;-33
2020/12/08 03:48:24;;;;;;;9.05;8.15;;;8.00;99.90;;;;;;5099767;28;20211;-33
2020/12/08 03:50:55;;;;;;;10.20;8.50;;;7.90;99.90;;;;;;5109921;28;20360;-36
2020/12/08 03:53:26;;;;;;;11.45;9.35;;;7.90;99.90;;;;;;5100555;28;20249;-35
2020/12/08 03:55:57;;;;;;;11.35;10.25;;;7.90;99.90;;;;;;5105220;28;20212;-36
2020/12/08 03:58:27;;;;;;;16.30;13.55;;;7.90;99.90;;;;;;5098954;28;20197;-38
2020/12/08 04:00:57;;;;;;;17.15;15.07;;;8.00;99.90;;;;;;5101700;28;20205;-35
2020/12/08 04:03:27;;;;;;;12.00;10.82;;;7.90;99.90;;;;;;5101465;28;20205;-37
2020/12/08 04:06:03;;;;;;;9.82;8.80;;;7.90;99.90;;;;;;5103862;28;20558;-34
2020/12/08 04:08:33;;;;;;;11.07;9.98;;;7.90;99.90;;;;;;5097936;28;20797;-37
2020/12/08 04:11:03;;;;;;;7.90;7.20;;;7.80;99.90;;;;;;5097047;28;20255;-36
2020/12/08 04:13:34;;;;;;;8.63;7.50;;;7.80;99.90;;;;;;5099410;28;20200;-37
2020/12/08 04:16:04;;;;;;;8.65;7.75;;;7.90;99.90;;;;;;5104013;28;20233;-35
2020/12/08 04:18:34;;;;;;;7.20;6.25;;;8.00;99.90;;;;;;5099556;28;20669;-33
2020/12/08 04:21:06;;;;;;;6.25;5.63;;;8.10;99.90;;;;;;5101670;28;20193;-34
2020/12/08 04:23:36;;;;;;;7.20;5.53;;;8.00;99.90;;;;;;5104252;28;20677;-37
2020/12/08 04:26:11;;;;;;;5.25;4.75;;;8.10;99.90;;;;;;5099096;28;20196;-36
2020/12/08 04:33:59;;;;;;;5.45;4.95;;;8.10;99.90;;;;;;5611087;23;20235;-30
2020/12/08 04:36:31;;;;;;;5.80;5.30;;;8.00;99.90;;;;;;4996854;28;20188;-29
2020/12/08 04:39:01;;;;;;;5.20;4.53;;;7.90;99.90;;;;;;5006845;28;20196;-29
2020/12/08 04:41:32;;;;;;;6.00;5.43;;;7.90;99.90;;;;;;5006340;28;20251;-29
2020/12/08 04:44:04;;;;;;;5.20;4.80;;;7.80;99.90;;;;;;4992039;28;20216;-29
2020/12/08 04:46:35;;;;;;;6.50;5.90;;;7.80;99.90;;;;;;4994662;28;20662;-29
2020/12/08 04:49:05;;;;;;;6.18;5.60;;;7.70;99.90;;;;;;5007948;28;20760;-29
2020/12/08 04:51:40;;;;;;;6.13;5.63;;;7.60;99.90;;;;;;5003968;28;20195;-29
2020/12/08 04:54:12;;;;;;;5.88;5.38;;;7.50;99.90;;;;;;4999299;28;20556;-29
2020/12/08 04:56:45;;;;;;;6.05;5.45;;;7.40;99.90;;;;;;4998498;28;20192;-29
2020/12/08 04:59:21;;;;;;;5.78;5.25;;;7.30;99.90;;;;;;4998495;28;20306;-29
2020/12/08 05:01:52;;;;;;;6.45;5.55;;;7.20;99.90;;;;;;5005723;28;20198;-29
2020/12/08 05:04:26;;;;;;;6.43;5.82;;;7.20;99.90;;;;;;5001506;28;20242;-29
2020/12/08 05:07:08;;;;;;;6.28;5.78;;;7.10;99.90;;;;;;5002871;28;20196;-30
2020/12/08 05:09:48;;;;;;;8.13;5.85;;;7.00;99.90;;;;;;5004665;28;20191;-29
2020/12/08 05:12:21;;;;;;;5.50;5.00;;;7.10;99.90;;;;;;5000034;28;20191;-29
2020/12/08 05:14:51;;;;;;;6.22;5.60;;;7.10;99.90;;;;;;5002504;28;20215;-30
2020/12/08 05:17:26;;;;;;;6.20;5.60;;;7.00;99.90;;;;;;5004526;28;20195;-30
2020/12/08 05:20:04;;;;;;;7.20;6.50;;;6.90;99.90;;;;;;4999903;28;20193;-29
2020/12/08 05:22:36;;;;;;;7.63;7.00;;;6.90;99.90;;;;;;5001196;28;20188;-29
2020/12/08 05:25:11;;;;;;;6.65;6.05;;;6.80;99.90;;;;;;4997095;28;20223;-30
2020/12/08 05:27:44;;;;;;;7.22;6.22;;;6.70;99.90;;;;;;5008373;28;20209;-29
2020/12/08 05:30:15;;;;;;;6.68;6.07;;;6.70;99.90;;;;;;4997796;28;20192;-30
2020/12/08 05:32:46;;;;;;;6.20;5.60;;;6.60;99.90;;;;;;5001645;28;20246;-30
2020/12/08 05:35:17;;;;;;;6.38;5.43;;;6.70;99.90;;;;;;4991483;28;20285;-30
2020/12/08 05:37:51;;;;;;;5.60;5.18;;;6.70;99.90;;;;;;4994460;28;20200;-30
2020/12/08 05:40:22;;;;;;;4.60;4.20;;;6.80;99.90;;;;;;4994068;28;20196;-30
2020/12/08 05:42:54;;;;;;;5.00;4.40;;;7.00;99.90;;;;;;4997166;28;20502;-30
2020/12/08 05:45:25;;;;;;;4.80;4.30;;;7.00;99.90;;;;;;4997772;28;20223;-30
2020/12/08 05:47:57;;;;;;;5.18;4.75;;;7.00;99.90;;;;;;4996460;28;20200;-30
2020/12/08 05:50:28;;;;;;;5.22;4.72;;;7.00;99.90;;;;;;4994618;28;20566;-30
2020/12/08 05:53:01;;;;;;;5.82;5.25;;;6.90;99.90;;;;;;4996752;28;20209;-29
2020/12/08 05:55:32;;;;;;;5.20;4.75;;;6.80;99.90;;;;;;4995887;28;20204;-30
2020/12/08 05:58:06;;;;;;;4.65;4.35;;;6.80;99.90;;;;;;4997206;28;20251;-29
2020/12/08 06:00:37;;;;;;;5.20;4.50;;;6.70;99.90;;;;;;4997638;28;20213;-30
2020/12/08 06:03:12;;;;;;;4.65;4.25;;;6.70;99.90;;;;;;5006288;28;20191;-29
2020/12/08 06:05:43;;;;;;;5.38;4.85;;;6.80;99.90;;;;;;4993123;28;20204;-29
2020/12/08 06:08:16;;;;;;;4.75;4.35;;;6.80;99.90;;;;;;5004663;28;20671;-29
2020/12/08 06:10:50;;;;;;;4.05;3.75;;;6.80;99.90;;;;;;5003906;28;20238;-30
2020/12/08 06:13:27;;;;;;;4.57;4.00;;;6.90;99.90;;;;;;4995325;28;20236;-30
2020/12/08 06:15:59;;;;;;;6.28;4.20;;;7.00;99.90;;;;;;4992497;28;20631;-29
2020/12/08 06:18:33;;;;;;;4.47;4.07;;;7.00;99.90;;;;;;4992727;28;20790;-30
2020/12/08 06:21:05;;;;;;;4.63;4.20;;;7.00;99.90;;;;;;4995072;28;20626;-29
2020/12/08 06:23:36;;;;;;;4.60;4.18;;;7.10;99.90;;;;;;4994012;28;20211;-29
2020/12/08 06:26:07;;;;;;;5.32;4.30;;;7.10;99.90;;;;;;4999914;28;20196;-30
2020/12/08 06:28:37;;;;;;;4.30;3.90;;;7.20;99.90;;;;;;5002914;28;20211;-29
2020/12/08 06:31:08;;;;;;;4.85;4.38;;;7.30;99.90;;;;;;4997643;28;20192;-29
2020/12/08 06:33:49;;;;;;;4.90;4.40;;;7.30;99.90;;;;;;4997602;28;20234;-29
2020/12/08 06:36:20;;;;;;;4.53;4.03;;;7.20;99.90;;;;;;5001053;28;20287;-29
2020/12/08 06:39:01;;;;;;;4.97;4.55;;;7.20;99.90;;;;;;5003160;28;20289;-29
2020/12/08 06:41:32;;;;;;;4.50;4.10;;;7.20;99.90;;;;;;4997654;28;20238;-30
2020/12/08 06:44:04;;;;;;;5.32;4.82;;;7.20;99.90;;;;;;5001153;28;20212;-30
2020/12/08 06:46:34;;;;;;;5.10;4.55;;;7.20;99.90;;;;;;4996899;28;20541;-30
2020/12/08 06:49:06;;;;;;;4.78;4.22;;;7.10;99.90;;;;;;4998062;28;20188;-31
2020/12/08 06:51:37;;;;;;;4.00;3.70;;;7.20;99.90;;;;;;4996574;28;20195;-31
2020/12/08 06:54:15;;;;;;;4.70;4.30;;;7.10;99.90;;;;;;4994027;28;20279;-30
2020/12/08 06:56:45;;;;;;;4.72;4.28;;;7.10;99.90;;;;;;5000819;28;20199;-31
2020/12/08 06:59:23;;;;;;;5.05;4.65;;;7.10;99.90;;;;;;4999406;28;20674;-31
2020/12/08 07:01:54;;;;;;;4.80;4.30;;;7.00;99.90;;;;;;5001165;28;20195;-30
2020/12/08 07:04:25;;;;;;;5.53;5.00;;;6.90;99.90;;;;;;4998359;28;20231;-30
2020/12/08 07:06:55;;;;;;;5.75;4.85;;;7.00;99.90;;;;;;4998450;28;20188;-30
2020/12/08 07:09:32;;;;;;;5.75;4.63;;;7.00;99.90;;;;;;4997467;28;20207;-30
2020/12/08 07:12:02;;;;;;;5.30;4.80;;;7.00;99.90;;;;;;4993921;28;20270;-31
2020/12/08 07:14:36;;;;;;;5.00;4.50;;;7.00;99.90;;;;;;5000363;28;20188;-31
2020/12/08 07:17:07;;;;;;;5.32;4.82;;;7.00;99.90;;;;;;4994823;28;20532;-30
2020/12/08 07:19:37;;;;;;;5.53;5.03;;;7.00;99.90;;;;;;4992322;28;20204;-31
2020/12/08 07:22:09;;;;;;;5.25;4.75;;;6.90;99.90;;;;;;4998429;28;20478;-30
2020/12/08 07:24:48;;;;;;;5.68;5.15;;;6.80;99.90;;;;;;4999154;28;20216;-30
2020/12/08 07:27:19;;;;;;;5.57;5.03;;;6.70;99.90;;;;;;4996742;28;20210;-30
2020/12/08 07:29:49;;;;;;;5.60;5.10;;;6.70;99.90;;;;;;4997151;28;20254;-31
2020/12/08 07:32:30;;;;;;;5.20;4.80;;;6.70;99.90;;;;;;5004533;28;20184;-30
2020/12/08 07:35:02;;;;;;;5.28;4.88;;;6.60;99.90;;;;;;4999285;28;20590;-30
2020/12/08 07:37:38;;;;;;;8.77;6.32;;;6.60;99.90;;;;;;4998097;28;20222;-31
2020/12/08 07:40:11;;;;;;;5.55;5.00;;;6.50;99.90;;;;;;5007550;28;20191;-30
2020/12/08 07:42:48;;;;;;;7.00;6.40;;;6.50;99.90;;;;;;5000183;28;20199;-30
2020/12/08 07:45:19;;;;;;;6.18;5.05;;;6.40;99.90;;;;;;5001413;28;20270;-30
2020/12/08 07:47:55;;;;;;;5.60;5.00;;;6.30;99.90;;;;;;4996691;28;20568;-30
2020/12/08 07:50:27;;;;;;;5.43;5.03;;;6.40;99.90;;;;;;5010033;28;20203;-30
2020/12/08 07:53:05;;;;;;;5.30;4.80;;;6.40;99.90;;;;;;4990995;28;20215;-30
2020/12/08 07:55:41;;;;;;;6.75;5.35;;;6.40;99.90;;;;;;4999320;28;20202;-31
2020/12/08 07:58:12;;;;;;;5.45;4.95;;;6.30;99.90;;;;;;5003579;28;20492;-30
2020/12/08 08:00:42;;;;;;;5.65;4.80;;;6.30;99.90;;;;;;4998815;28;20206;-30
2020/12/08 08:03:13;;;;;;;5.70;4.35;;;6.30;99.90;;;;;;4999917;28;20280;-30
2020/12/08 08:05:43;;;;;;;5.88;5.28;;;6.20;99.90;;;;;;4997741;28;20218;-30
2020/12/08 08:08:13;;;;;;;5.63;5.05;;;6.20;99.90;;;;;;5003494;28;20219;-30
2020/12/08 08:10:44;;;;;;;5.55;5.05;;;6.20;99.90;;;;;;5004977;28;20198;-30
2020/12/08 08:13:19;;;;;;;5.45;4.95;;;6.10;99.90;;;;;;5001574;28;20188;-30
2020/12/08 08:15:50;;;;;;;6.15;5.55;;;6.10;99.90;;;;;;4998853;28;20530;-30
2020/12/08 08:18:20;;;;;;;5.20;4.80;;;6.10;99.90;;;;;;5003292;28;20295;-30
2020/12/08 08:20:50;;;;;;;6.85;4.95;;;6.10;99.90;;;;;;5001115;28;20315;-30
2020/12/08 08:23:20;;;;;;;6.03;5.43;;;6.10;99.90;;;;;;5007061;28;20230;-30
2020/12/08 08:25:52;;;;;;;5.85;5.10;;;6.00;99.90;;;;;;5001074;28;20589;-30
2020/12/08 08:28:23;;;;;;;6.10;5.50;;;6.00;99.90;;;;;;5008178;28;20284;-30
2020/12/08 08:30:53;;;;;;;6.90;6.05;;;5.90;99.90;;;;;;4998296;28;20196;-30
2020/12/08 08:33:23;;;;;;;6.93;5.72;;;5.90;99.90;;;;;;4993923;28;20550;-30
2020/12/08 08:35:53;;;;;;;6.85;6.05;;;5.80;99.90;;;;;;4992628;28;20555;-30
2020/12/08 08:38:26;;;;;;;6.25;5.72;;;5.90;99.90;;;;;;4994740;28;20199;-30
2020/12/08 08:40:58;;;;;;;6.45;5.70;;;5.90;99.90;;;;;;5001264;28;20268;-30
2020/12/08 08:43:28;;;;;;;6.10;5.50;;;5.80;99.90;;;;;;4995648;28;20658;-30
2020/12/08 08:45:58;;;;;;;6.10;5.53;;;5.70;99.90;;;;;;4996619;28;20596;-30
2020/12/08 08:48:29;;;;;;;6.47;5.55;;;5.60;99.90;;;;;;4996294;28;20204;-30
2020/12/08 08:50:59;;;;;;;6.40;5.50;;;5.60;99.90;;;;;;4996162;28;20263;-30
2020/12/08 08:53:29;;;;;;;6.75;5.95;;;5.60;99.90;;;;;;4994983;28;20255;-30
2020/12/08 08:56:00;;;;;;;5.60;5.10;;;5.50;99.90;;;;;;4998621;28;20253;-30
2020/12/08 08:58:30;;;;;;;5.82;5.30;;;5.50;99.90;;;;;;5003577;28;20196;-30
2020/12/08 09:01:00;;;;;;;5.10;4.60;;;5.50;99.90;;;;;;4998422;28;20195;-30
2020/12/08 09:03:30;;;;;;;5.68;5.03;;;5.50;99.90;;;;;;5002014;28;20277;-30
2020/12/08 09:06:00;;;;;;;6.75;5.38;;;5.50;99.90;;;;;;5001880;28;20628;-30
2020/12/08 09:08:30;;;;;;;6.60;5.40;;;5.50;99.90;;;;;;5007227;28;20249;-29
2020/12/08 09:11:01;;;;;;;6.57;5.93;;;5.50;99.90;;;;;;5004383;28;20203;-29
2020/12/08 09:13:31;;;;;;;5.95;5.40;;;5.50;99.90;;;;;;4996351;28;20196;-29
2020/12/08 09:16:01;;;;;;;6.25;5.65;;;5.50;99.90;;;;;;5005205;28;20271;-29
2020/12/08 09:18:31;;;;;;;6.18;5.20;;;5.40;99.90;;;;;;4997483;28;20196;-29
2020/12/08 09:21:01;;;;;;;6.20;4.97;;;5.40;99.90;;;;;;4997913;28;20196;-29
2020/12/08 09:23:31;;;;;;;6.65;5.35;;;5.40;99.90;;;;;;4995908;28;20637;-29
2020/12/08 09:26:02;;;;;;;5.40;4.90;;;5.30;99.90;;;;;;4996821;28;20576;-29
2020/12/08 09:28:32;;;;;;;5.95;5.30;;;5.40;99.90;;;;;;5000214;28;20257;-29
2020/12/08 09:31:02;;;;;;;5.97;5.38;;;5.40;99.90;;;;;;4998816;28;20214;-29
2020/12/08 09:33:32;;;;;;;5.25;4.80;;;5.30;99.90;;;;;;5001202;28;20215;-29
2020/12/08 09:36:03;;;;;;;5.60;4.88;;;5.20;99.90;;;;;;5000541;28;20210;-30
2020/12/08 09:38:33;;;;;;;5.22;4.78;;;5.30;99.90;;;;;;4994617;28;20188;-30
2020/12/08 09:41:04;;;;;;;5.65;5.07;;;5.20;99.90;;;;;;4995866;28;20199;-29
2020/12/08 09:43:34;;;;;;;5.72;5.07;;;5.30;99.90;;;;;;4997464;28;20219;-29
2020/12/08 09:46:04;;;;;;;6.80;5.93;;;5.30;99.90;;;;;;4995288;28;20756;-29
2020/12/08 09:48:34;;;;;;;5.82;4.82;;;5.10;99.90;;;;;;4998498;28;20258;-29
2020/12/08 09:51:04;;;;;;;5.50;5.00;;;5.10;99.90;;;;;;5003572;28;20218;-29
2020/12/08 09:53:34;;;;;;;7.65;5.57;;;5.10;99.90;;;;;;4999331;28;20199;-29
2020/12/08 09:56:05;;;;;;;6.10;5.50;;;5.10;99.90;;;;;;4993621;28;20274;-29
2020/12/08 09:58:35;;;;;;;5.68;5.07;;;5.10;99.90;;;;;;4998434;28;20611;-30
2020/12/08 10:01:05;;;;;;;6.60;5.72;;;5.00;99.90;;;;;;4997708;28;20963;-29
2020/12/08 10:03:38;;;;;;;6.30;5.65;;;5.00;99.90;;;;;;4999240;28;20239;-29
2020/12/08 10:06:08;;;;;;;5.90;5.30;;;5.00;99.90;;;;;;4996860;28;20327;-30
2020/12/08 10:08:38;;;;;;;5.93;5.32;;;5.00;99.90;;;;;;5000549;28;20219;-29
2020/12/08 10:11:13;;;;;;;6.40;4.90;;;5.00;99.90;;;;;;4995690;28;20196;-29
2020/12/08 10:13:53;;;;;;;5.80;5.30;;;5.00;99.90;;;;;;4999994;28;20192;-30
2020/12/08 10:16:24;;;;;;;5.22;4.72;;;4.90;99.90;;;;;;4988909;28;20254;-30
2020/12/08 10:18:55;;;;;;;6.53;4.90;;;4.90;99.90;;;;;;4992969;28;20307;-29
2020/12/08 10:40:23;;;;;;;7.72;6.90;;;4.90;99.90;;;;;;4965137;28;20778;-29
2020/12/08 10:42:53;;;;;;;7.47;6.30;;;4.90;99.90;;;;;;4993564;28;20188;-30
2020/12/08 10:45:41;;;;;;;7.15;6.35;;;5.00;99.90;;;;;;5004999;28;20270;-29
2020/12/08 10:48:11;;;;;;;5.10;4.70;;;5.00;99.90;;;;;;4992732;28;20736;-29
2020/12/08 10:50:41;;;;;;;5.88;5.22;;;4.90;99.90;;;;;;5000471;28;20655;-29
2020/12/08 10:53:12;;;;;;;6.97;5.45;;;4.90;99.90;;;;;;5002750;28;20211;-29
2020/12/08 10:55:43;;;;;;;5.57;5.07;;;4.80;99.90;;;;;;5008153;28;20631;-29
2020/12/08 10:58:13;;;;;;;6.78;4.90;;;4.90;99.90;;;;;;5005743;28;20215;-29
2020/12/08 11:00:43;;;;;;;5.40;4.90;;;4.90;99.90;;;;;;5005220;28;20210;-29
2020/12/08 11:03:13;;;;;;;5.90;4.85;;;4.90;99.90;;;;;;4999725;28;20275;-29
2020/12/08 11:05:43;;;;;;;6.85;5.40;;;4.90;99.90;;;;;;4996143;28;20231;-29
2020/12/08 11:08:14;;;;;;;5.03;4.63;;;4.90;99.90;;;;;;5008694;28;20191;-29
2020/12/08 11:10:45;;;;;;;5.15;4.65;;;4.80;99.90;;;;;;4991656;28;20685;-29
2020/12/08 11:13:17;;;;;;;5.50;5.00;;;4.70;99.90;;;;;;5001465;28;20291;-29
2020/12/08 11:15:59;;;;;;;5.95;5.15;;;4.80;99.90;;;;;;4995552;28;20207;-29
2020/12/08 11:18:30;;;;;;;7.50;5.45;;;4.70;99.90;;;;;;4994272;28;20208;-29
2020/12/08 11:21:01;;;;;;;7.30;5.97;;;4.70;99.90;;;;;;4998666;28;20678;-30
2020/12/08 11:23:31;;;;;;;6.25;5.68;;;4.70;99.90;;;;;;5006387;28;20260;-29
2020/12/08 11:26:02;;;;;;;7.32;6.50;;;4.70;99.90;;;;;;4997299;28;20683;-29
2020/12/08 11:28:32;;;;;;;7.47;6.57;;;4.70;99.90;;;;;;4993551;28;20605;-29
2020/12/08 11:31:02;;;;;;;9.32;7.80;;;4.70;99.90;;;;;;5005305;28;20256;-29
2020/12/08 11:33:45;;;;;;;10.65;8.35;;;4.60;99.90;;;;;;5005103;28;20223;-29
2020/12/08 11:36:16;;;;;;;8.68;7.82;;;4.60;99.90;;;;;;5009872;28;20714;-29
2020/12/08 11:38:46;;;;;;;11.57;8.60;;;4.60;99.90;;;;;;4999656;28;20191;-29
2020/12/08 11:41:17;;;;;;;9.40;7.15;;;4.60;99.90;;;;;;4997886;28;20335;-29
2020/12/08 11:43:47;;;;;;;8.23;6.30;;;4.60;99.90;;;;;;4997972;28;20219;-29
2020/12/08 11:46:18;;;;;;;10.27;5.68;;;4.60;99.90;;;;;;4999595;28;20231;-29
2020/12/08 11:48:48;;;;;;;7.18;4.78;;;4.60;99.90;;;;;;5007335;28;20543;-29
2020/12/08 11:51:18;;;;;;;5.30;4.80;;;4.50;99.90;;;;;;4997953;28;20188;-30
2020/12/08 11:53:48;;;;;;;5.28;4.78;;;4.50;99.90;;;;;;4998887;28;20204;-29
2020/12/08 11:56:19;;;;;;;5.82;5.10;;;4.50;99.90;;;;;;5006560;28;20196;-29
2020/12/08 11:58:49;;;;;;;5.32;4.82;;;4.50;99.90;;;;;;4999522;28;20275;-29
2020/12/08 12:01:19;;;;;;;6.00;5.50;;;4.40;99.90;;;;;;4998560;28;20200;-29
2020/12/08 12:03:49;;;;;;;6.32;4.20;;;4.40;99.90;;;;;;5001281;28;20199;-29
2020/12/08 12:06:19;;;;;;;5.75;4.18;;;4.40;99.90;;;;;;5000146;28;20228;-30
2020/12/08 12:08:49;;;;;;;5.07;4.63;;;4.40;99.90;;;;;;4999712;28;20191;-29
2020/12/08 12:11:20;;;;;;;5.30;4.80;;;4.30;99.90;;;;;;5004220;28;20199;-29
2020/12/08 12:13:50;;;;;;;5.30;4.65;;;4.30;99.90;;;;;;5003025;28;20196;-29
2020/12/08 12:16:20;;;;;;;5.55;4.32;;;4.30;99.90;;;;;;4997774;28;20544;-29
2020/12/08 12:18:50;;;;;;;4.70;4.30;;;4.30;99.90;;;;;;4998789;28;20204;-29
2020/12/08 12:21:21;;;;;;;5.32;4.43;;;4.30;99.90;;;;;;5002614;28;20192;-29
2020/12/08 12:23:51;;;;;;;5.00;4.50;;;4.30;99.90;;;;;;4998015;28;20199;-30
2020/12/08 12:26:25;;;;;;;6.15;5.25;;;4.30;99.90;;;;;;4999710;28;20302;-30
2020/12/08 12:28:55;;;;;;;5.40;4.88;;;4.20;99.90;;;;;;5004381;28;20196;-30
2020/12/08 12:31:25;;;;;;;4.88;3.92;;;4.20;99.90;;;;;;4994606;28;20203;-29
2020/12/08 12:33:55;;;;;;;4.75;4.30;;;4.20;99.90;;;;;;4994695;28;20243;-30
2020/12/08 12:36:25;;;;;;;5.55;5.15;;;4.20;99.90;;;;;;4997363;28;20254;-30
2020/12/08 12:38:55;;;;;;;5.13;4.40;;;4.20;99.90;;;;;;5002639;28;20737;-30
2020/12/08 12:41:27;;;;;;;5.20;4.70;;;4.20;99.90;;;;;;5001165;28;20242;-30
2020/12/08 12:43:57;;;;;;;5.45;4.50;;;4.20;99.90;;;;;;5000987;28;20195;-29
2020/12/08 12:46:27;;;;;;;6.82;5.43;;;4.20;99.90;;;;;;5000249;28;20249;-30
2020/12/08 12:48:58;;;;;;;5.13;4.63;;;4.20;99.90;;;;;;4997295;28;20306;-29
2020/12/08 12:51:30;;;;;;;5.72;5.22;;;4.10;99.90;;;;;;4994732;28;20562;-30
2020/12/08 12:54:01;;;;;;;5.65;4.70;;;4.10;99.90;;;;;;4999572;28;20441;-29
2020/12/08 12:56:32;;;;;;;5.57;5.07;;;4.10;99.90;;;;;;4994969;28;20212;-29
2020/12/08 12:59:02;;;;;;;5.20;4.70;;;4.10;99.90;;;;;;5000393;28;20257;-29
2020/12/08 13:01:32;;;;;;;5.18;4.68;;;4.10;99.90;;;;;;4996526;28;20228;-29
2020/12/08 13:04:02;;;;;;;5.95;5.20;;;4.00;99.90;;;;;;5007910;28;20207;-30
2020/12/08 13:06:32;;;;;;;5.80;5.20;;;4.00;99.90;;;;;;5002338;28;20228;-30
2020/12/08 13:09:02;;;;;;;5.35;4.82;;;4.00;99.90;;;;;;4996589;28;20683;-29
2020/12/08 13:11:33;;;;;;;5.65;4.68;;;4.00;99.90;;;;;;5001921;28;20275;-29
2020/12/08 13:14:03;;;;;;;7.03;5.30;;;3.90;99.90;;;;;;4995709;28;20271;-30
2020/12/08 13:16:34;;;;;;;5.82;5.32;;;3.90;99.90;;;;;;4998213;28;20192;-30
2020/12/08 13:19:04;;;;;;;6.10;5.38;;;3.90;99.90;;;;;;4998135;28;20195;-30
2020/12/08 13:21:34;;;;;;;6.40;5.78;;;3.90;99.90;;;;;;4999039;28;20254;-30
2020/12/08 13:24:04;;;;;;;5.63;5.03;;;3.90;99.90;;;;;;4998975;28;20283;-30
2020/12/08 13:26:35;;;;;;;6.32;5.82;;;3.90;99.90;;;;;;4996161;28;20223;-29
2020/12/08 13:29:05;;;;;;;6.10;5.50;;;3.80;99.90;;;;;;4997701;28;20270;-30
2020/12/08 13:31:35;;;;;;;7.30;6.25;;;3.80;99.90;;;;;;4997567;28;20654;-29
2020/12/08 13:34:05;;;;;;;7.00;5.78;;;3.90;99.90;;;;;;4999237;28;20697;-29
2020/12/08 13:36:35;;;;;;;7.60;6.13;;;3.90;99.90;;;;;;4996077;28;20270;-29
2020/12/08 13:39:05;;;;;;;6.35;5.75;;;4.00;99.90;;;;;;4998939;28;20207;-30
2020/12/08 13:41:37;;;;;;;6.18;5.53;;;3.90;99.90;;;;;;4999951;28;20195;-29